| time (UTC) | temp C | wind direction | speed KPH | gust KPH | rain 1hr cm | rain 24hr cm | rain mn cm | humidity % | barometer mb |
| 20260510000449 | 18 | 166 | 0.0 | 0.0 | 0.00 | 0.00 | 0.00 | 68 | |
| 20260509235946 | 18 | 160 | 0.0 | 0.0 | 0.00 | 0.00 | 0.00 | 69 | |
| 20260509235443 | 20 | 160 | 0.0 | 0.0 | 0.00 | 0.00 | 0.00 | 64 | |
| 20260509234940 | 20 | 170 | 0.0 | 0.0 | 0.00 | 0.00 | 0.00 | 61 | |
| 20260509234436 | 21 | 176 | 0.0 | 0.0 | 0.00 | 0.00 | 0.00 | 58 | |
| 20260509233934 | 22 | 169 | 0.0 | 0.0 | 0.00 | 0.00 | 0.00 | 58 | |
| 20260509233432 | 22 | 145 | 0.0 | 1.6 | 0.00 | 0.00 | 0.00 | 57 | |
| 20260509232927 | 21 | 158 | 1.6 | 3.2 | 0.00 | 0.00 | 0.00 | 55 | |
| 20260509232425 | 22 | 154 | 0.0 | 1.6 | 0.00 | 0.00 | 0.00 | 53 | |
| 20260509231921 | 22 | 172 | 0.0 | 3.2 | 0.00 | 0.00 | 0.00 | 55 | |
| 20260509231418 | 22 | 174 | 3.2 | 3.2 | 0.00 | 0.00 | 0.00 | 53 | |
| 20260509230916 | 22 | 150 | 0.0 | 1.6 | 0.00 | 0.00 | 0.00 | 55 | |
| 20260509230412 | 22 | 199 | 3.2 | 6.4 | 0.00 | 0.00 | 0.00 | 55 | |
| 20260509225908 | 22 | 43 | 4.8 | 4.8 | 0.00 | 0.00 | 0.00 | 55 | |
| 20260509225405 | 21 | 85 | 3.2 | 4.8 | 0.00 | 0.00 | 0.00 | 55 | |
| 20260509224901 | 22 | 68 | 4.8 | 4.8 | 0.00 | 0.00 | 0.00 | 55 | |
| 20260509224357 | 22 | 163 | 0.0 | 3.2 | 0.00 | 0.00 | 0.00 | 54 | |
| 20260509223854 | 22 | 79 | 1.6 | 6.4 | 0.00 | 0.00 | 0.00 | 54 | |
| 20260509223351 | 22 | 313 | 6.4 | 11.3 | 0.00 | 0.00 | 0.00 | 54 | |
| 20260509222849 | 22 | 27 | 6.4 | 9.7 | 0.00 | 0.00 | 0.00 | 54 | |
| 20260509222348 | 22 | 65 | 3.2 | 4.8 | 0.00 | 0.00 | 0.00 | 51 | |
| 20260509221844 | 22 | 277 | 3.2 | 4.8 | 0.00 | 0.00 | 0.00 | 52 | |
| 20260509221342 | 22 | 242 | 3.2 | 4.8 | 0.00 | 0.00 | 0.00 | 53 | |
| 20260509220842 | 21 | 50 | 3.2 | 6.4 | 0.00 | 0.00 | 0.00 | 53 | |
| 20260509220339 | 22 | 9 | 3.2 | 6.4 | 0.00 | 0.00 | 0.00 | 57 | |
| 20260509215834 | 21 | 150 | 1.6 | 3.2 | 0.00 | 0.00 | 0.00 | 54 | |
| 20260509215331 | 21 | 167 | 0.0 | 4.8 | 0.00 | 0.00 | 0.00 | 54 | |
| 20260509214828 | 22 | 76 | 3.2 | 4.8 | 0.00 | 0.00 | 0.00 | 56 | |
| 20260509214325 | 22 | 71 | 1.6 | 4.8 | 0.00 | 0.00 | 0.00 | 52 | |
| 20260509213823 | 22 | 83 | 4.8 | 6.4 | 0.00 | 0.00 | 0.00 | 51 | |
| 20260509213318 | 22 | 44 | 1.6 | 3.2 | 0.00 | 0.00 | 0.00 | 51 | |
| 20260509212816 | 22 | 45 | 4.8 | 6.4 | 0.00 | 0.00 | 0.00 | 49 | |
| 20260509212313 | 23 | 168 | 1.6 | 1.6 | 0.00 | 0.00 | 0.00 | 46 | |
| 20260509211809 | 23 | 151 | 0.0 | 1.6 | 0.00 | 0.00 | 0.00 | 52 | |
| 20260509211305 | 23 | 153 | 0.0 | 1.6 | 0.00 | 0.00 | 0.00 | 44 | |
| 20260509210801 | 24 | 154 | 0.0 | 3.2 | 0.00 | 0.00 | 0.00 | 44 | |
| 20260509210259 | 24 | 226 | 3.2 | 4.8 | 0.00 | 0.00 | 0.00 | 42 | |
| 20260509205758 | 25 | 169 | 1.6 | 3.2 | 0.00 | 0.00 | 0.00 | 42 | |
| 20260509205253 | 25 | 153 | 0.0 | 1.6 | 0.00 | 0.00 | 0.00 | 43 | |
| 20260509204750 | 25 | 166 | 1.6 | 1.6 | 0.00 | 0.00 | 0.00 | 42 | |
| 20260509204246 | 25 | 157 | 1.6 | 3.2 | 0.00 | 0.00 | 0.00 | 44 | |
| 20260509203742 | 25 | 163 | 0.0 | 1.6 | 0.00 | 0.00 | 0.00 | 40 | |
| 20260509203241 | 25 | 178 | 0.0 | 1.6 | 0.00 | 0.00 | 0.00 | 41 | |
| 20260509202736 | 24 | 171 | 1.6 | 1.6 | 0.00 | 0.00 | 0.00 | 43 | |
| 20260509202232 | 23 | 186 | 1.6 | 3.2 | 0.00 | 0.00 | 0.00 | 43 | |
| 20260509201726 | 23 | 178 | 1.6 | 4.8 | 0.00 | 0.00 | 0.00 | 42 | |
| 20260509201223 | 23 | 139 | 3.2 | 4.8 | 0.00 | 0.00 | 0.00 | 42 | |
| 20260509200720 | 23 | 220 | 8.0 | 12.9 | 0.00 | 0.00 | 0.00 | 41 | |
| 20260509200215 | 25 | 195 | 6.4 | 12.9 | 0.00 | 0.00 | 0.00 | 41 | |
| 20260509195712 | 26 | 131 | 0.0 | 3.2 | 0.00 | 0.00 | 0.00 | 38 | |
| 20260509195207 | 27 | 146 | 1.6 | 9.7 | 0.00 | 0.00 | 0.00 | 38 | |
| 20260509194706 | 26 | 154 | 1.6 | 3.2 | 0.00 | 0.00 | 0.00 | 41 | |
| 20260509194203 | 25 | 136 | 0.0 | 3.2 | 0.00 | 0.00 | 0.00 | 42 | |
| 20260509193700 | 25 | 198 | 1.6 | 4.8 | 0.00 | 0.00 | 0.00 | 42 | |
| 20260509193155 | 25 | 165 | 3.2 | 4.8 | 0.00 | 0.00 | 0.00 | 42 | |
| 20260509192652 | 25 | 202 | 1.6 | 3.2 | 0.00 | 0.00 | 0.00 | 42 | |
| 20260509192147 | 25 | 95 | 4.8 | 6.4 | 0.00 | 0.00 | 0.00 | 42 | |
| 20260509191647 | 24 | 132 | 1.6 | 9.7 | 0.00 | 0.00 | 0.00 | 43 | |
| 20260509191144 | 23 | 95 | 6.4 | 14.5 | 0.00 | 0.00 | 0.00 | 44 | |
| 20260509190640 | 25 | 231 | 4.8 | 6.4 | 0.00 | 0.00 | 0.00 | 42 | |
| 20260509190138 | 23 | 167 | 3.2 | 11.3 | 0.00 | 0.00 | 0.00 | 44 | |
| 20260509185635 | 24 | 201 | 6.4 | 11.3 | 0.00 | 0.00 | 0.00 | 44 | |
| 20260509185131 | 25 | 112 | 1.6 | 11.3 | 0.00 | 0.00 | 0.00 | 43 | |
| 20260509184629 | 25 | 62 | 3.2 | 4.8 | 0.00 | 0.00 | 0.00 | 43 | |
| 20260509184126 | 25 | 247 | 6.4 | 9.7 | 0.00 | 0.00 | 0.00 | 41 | |
| 20260509183622 | 22 | 143 | 1.6 | 3.2 | 0.00 | 0.00 | 0.00 | 46 | |
| 20260509183117 | 21 | 235 | 6.4 | 11.3 | 0.00 | 0.00 | 0.00 | 47 | |
| 20260509182613 | 23 | 187 | 3.2 | 4.8 | 0.00 | 0.00 | 0.00 | 48 | |
| 20260509182110 | 22 | 224 | 0.0 | 4.8 | 0.00 | 0.00 | 0.00 | 50 | |
| 20260509181609 | 21 | 88 | 3.2 | 6.4 | 0.00 | 0.00 | 0.00 | 53 | |
| 20260509181106 | 21 | 63 | 3.2 | 6.4 | 0.00 | 0.00 | 0.00 | 53 | |
| 20260509180602 | 21 | 88 | 3.2 | 9.7 | 0.00 | 0.00 | 0.00 | 53 | |
| 20260509180059 | 21 | 114 | 4.8 | 9.7 | 0.00 | 0.00 | 0.00 | 53 | |
| 20260509175554 | 21 | 150 | 1.6 | 4.8 | 0.00 | 0.00 | 0.00 | 54 | |
| 20260509175052 | 20 | 155 | 0.0 | 6.4 | 0.00 | 0.00 | 0.00 | 54 | |
| 20260509174548 | 20 | 123 | 3.2 | 9.7 | 0.00 | 0.00 | 0.00 | 55 | |
| 20260509174044 | 21 | 39 | 1.6 | 6.4 | 0.00 | 0.00 | 0.00 | 53 | |
| 20260509173544 | 21 | 63 | 1.6 | 9.7 | 0.00 | 0.00 | 0.00 | 52 | |
| 20260509173041 | 21 | 74 | 3.2 | 9.7 | 0.00 | 0.00 | 0.00 | 49 | |
| 20260509172538 | 21 | 113 | 1.6 | 3.2 | 0.00 | 0.00 | 0.00 | 49 | |
| 20260509172033 | 21 | 140 | 0.0 | 1.6 | 0.00 | 0.00 | 0.00 | 49 | |
| 20260509171529 | 21 | 109 | 3.2 | 4.8 | 0.00 | 0.00 | 0.00 | 53 | |
| 20260509171026 | 20 | 153 | 1.6 | 6.4 | 0.00 | 0.00 | 0.00 | 51 | |
| 20260509170522 | 20 | 94 | 4.8 | 6.4 | 0.00 | 0.00 | 0.00 | 54 | |
| 20260509170018 | 20 | 96 | 0.0 | 3.2 | 0.00 | 0.00 | 0.00 | 55 | |
| 20260509165516 | 20 | 83 | 4.8 | 9.7 | 0.00 | 0.00 | 0.00 | 55 | |
| 20260509165012 | 20 | 82 | 9.7 | 12.9 | 0.00 | 0.00 | 0.00 | 55 | |
| 20260509164509 | 21 | 90 | 12.9 | 14.5 | 0.00 | 0.00 | 0.00 | 53 | |
| 20260509164004 | 23 | 169 | 4.8 | 4.8 | 0.00 | 0.00 | 0.00 | 47 | |
| 20260509163502 | 22 | 150 | 0.0 | 3.2 | 0.00 | 0.00 | 0.00 | 47 | |
| 20260509163001 | 23 | 111 | 0.0 | 3.2 | 0.00 | 0.00 | 0.00 | 44 | |
| 20260509162500 | 22 | 153 | 0.0 | 3.2 | 0.00 | 0.00 | 0.00 | 45 | |
| 20260509161955 | 22 | 139 | 0.0 | 4.8 | 0.00 | 0.00 | 0.00 | 47 | |
| 20260509161452 | 22 | 144 | 1.6 | 6.4 | 0.00 | 0.00 | 0.00 | 45 | |
| 20260509160947 | 22 | 159 | 1.6 | 4.8 | 0.00 | 0.00 | 0.00 | 47 | |
| 20260509160443 | 22 | 133 | 8.0 | 11.3 | 0.00 | 0.00 | 0.00 | 45 | |
| 20260509155939 | 22 | 157 | 4.8 | 9.7 | 0.00 | 0.00 | 0.00 | 48 | |
| 20260509155436 | 21 | 100 | 1.6 | 4.8 | 0.00 | 0.00 | 0.00 | 48 | |
| 20260509154932 | 21 | 180 | 3.2 | 16.1 | 0.00 | 0.00 | 0.00 | 52 | |
| 20260509154428 | 21 | 74 | 9.7 | 12.9 | 0.00 | 0.00 | 0.00 | 51 | |
| 20260509153926 | 21 | 86 | 6.4 | 12.9 | 0.00 | 0.00 | 0.00 | 52 | |
| 20260509153423 | 23 | 108 | 6.4 | 9.7 | 0.00 | 0.00 | 0.00 | 48 | |
| 20260509152920 | 23 | 215 | 3.2 | 6.4 | 0.00 | 0.00 | 0.00 | 44 | |
| 20260509152415 | 23 | 208 | 1.6 | 3.2 | 0.00 | 0.00 | 0.00 | 48 | |
| 20260509151912 | 22 | 141 | 1.6 | 3.2 | 0.00 | 0.00 | 0.00 | 48 | |
| 20260509151408 | 21 | 235 | 3.2 | 3.2 | 0.00 | 0.00 | 0.00 | 50 | |
| 20260509150907 | 20 | 256 | 4.8 | 12.9 | 0.00 | 0.00 | 0.00 | 53 | |
| 20260509150404 | 22 | 191 | 8.0 | 14.5 | 0.00 | 0.00 | 0.00 | 50 | |
| 20260509145902 | 23 | 145 | 4.8 | 6.4 | 0.00 | 0.00 | 0.00 | 48 | |
| 20260509145401 | 22 | 105 | 1.6 | 3.2 | 0.00 | 0.00 | 0.00 | 50 | |
| 20260509144858 | 21 | 180 | 3.2 | 12.9 | 0.00 | 0.00 | 0.00 | 49 | |
| 20260509144355 | 22 | 123 | 1.6 | 3.2 | 0.00 | 0.00 | 0.00 | 49 | |
| 20260509143852 | 21 | 154 | 0.0 | 4.8 | 0.00 | 0.00 | 0.00 | 52 | |
| 20260509143349 | 21 | 176 | 0.0 | 4.8 | 0.00 | 0.00 | 0.00 | 51 | |
| 20260509142845 | 21 | 220 | 4.8 | 9.7 | 0.00 | 0.00 | 0.00 | 53 | |
| 20260509142342 | 21 | 219 | 3.2 | 11.3 | 0.00 | 0.00 | 0.00 | 54 | |
| 20260509141838 | 21 | 157 | 1.6 | 4.8 | 0.00 | 0.00 | 0.00 | 52 | |
| 20260509141335 | 19 | 121 | 0.0 | 4.8 | 0.00 | 0.00 | 0.00 | 54 | |
| 20260509140831 | 20 | 237 | 3.2 | 4.8 | 0.00 | 0.00 | 0.00 | 53 | |
| 20260509140328 | 20 | 117 | 0.0 | 3.2 | 0.00 | 0.00 | 0.00 | 52 | |
| 20260509135827 | 20 | 100 | 0.0 | 3.2 | 0.00 | 0.00 | 0.00 | 53 | |
| 20260509135324 | 19 | 155 | 0.0 | 1.6 | 0.00 | 0.00 | 0.00 | 52 | |
| 20260509134821 | 18 | 130 | 3.2 | 3.2 | 0.00 | 0.00 | 0.00 | 54 | |
| 20260509134318 | 18 | 351 | 4.8 | 9.7 | 0.00 | 0.00 | 0.00 | 55 | |
| 20260509133815 | 18 | 141 | 0.0 | 0.0 | 0.00 | 0.00 | 0.00 | 54 | |
| 20260509133311 | 17 | 199 | 1.6 | 3.2 | 0.00 | 0.00 | 0.00 | 55 | |
| 20260509132810 | 17 | 255 | 3.2 | 9.7 | 0.00 | 0.00 | 0.00 | 59 | |
| 20260509132309 | 16 | 235 | 3.2 | 3.2 | 0.00 | 0.00 | 0.00 | 58 | |
| 20260509131805 | 16 | 208 | 0.0 | 1.6 | 0.00 | 0.00 | 0.00 | 63 | |
| 20260509131302 | 17 | 175 | 1.6 | 3.2 | 0.00 | 0.00 | 0.00 | 63 | |
| 20260509130758 | 17 | 122 | 0.0 | 1.6 | 0.00 | 0.00 | 0.00 | 58 | |
| 20260509130254 | 16 | 149 | 0.0 | 1.6 | 0.00 | 0.00 | 0.00 | 58 | |
| 20260509125750 | 16 | 77 | 0.0 | 3.2 | 0.00 | 0.00 | 0.00 | 62 | |
| 20260509125247 | 15 | 147 | 0.0 | 3.2 | 0.00 | 0.00 | 0.00 | 61 | |
| 20260509124744 | 15 | 132 | 0.0 | 0.0 | 0.00 | 0.00 | 0.00 | 62 | |
| 20260509124240 | 15 | 106 | 1.6 | 3.2 | 0.00 | 0.00 | 0.00 | 63 | |
| 20260509123739 | 15 | 144 | 0.0 | 4.8 | 0.00 | 0.00 | 0.00 | 65 | |
| 20260509123235 | 15 | 90 | 3.2 | 4.8 | 0.00 | 0.00 | 0.00 | 65 | |
| 20260509122731 | 15 | 157 | 0.0 | 4.8 | 0.00 | 0.00 | 0.00 | 66 | |
| 20260509122228 | 14 | 144 | 0.0 | 1.6 | 0.00 | 0.00 | 0.00 | 66 | |
| 20260509121725 | 14 | 140 | 0.0 | 1.6 | 0.00 | 0.00 | 0.00 | 71 | |
| 20260509121222 | 13 | 132 | 1.6 | 1.6 | 0.00 | 0.00 | 0.00 | 73 | |
| 20260509120721 | 13 | 127 | 1.6 | 3.2 | 0.00 | 0.00 | 0.00 | 78 | |
| 20260509120218 | 12 | 129 | 1.6 | 3.2 | 0.00 | 0.00 | 0.00 | 84 | |
| 20260509115715 | 12 | 129 | 0.0 | 1.6 | 0.00 | 0.00 | 0.00 | 83 | |
| 20260509115213 | 13 | 154 | 0.0 | 0.0 | 0.00 | 0.00 | 0.00 | 83 | |
| 20260509114711 | 12 | 162 | 0.0 | 0.0 | 0.00 | 0.00 | 0.00 | 82 | |
| 20260509114209 | 12 | 152 | 0.0 | 0.0 | 0.00 | 0.00 | 0.00 | 81 | |
| 20260509113708 | 12 | 156 | 0.0 | 0.0 | 0.00 | 0.00 | 0.00 | 82 | |
| 20260509113204 | 12 | 163 | 0.0 | 0.0 | 0.00 | 0.00 | 0.00 | 79 | |
| 20260509112701 | 12 | 167 | 0.0 | 1.6 | 0.00 | 0.00 | 0.00 | 77 | |
| 20260509112158 | 12 | 178 | 0.0 | 1.6 | 0.00 | 0.00 | 0.00 | 77 | |
| 20260509111655 | 12 | 163 | 0.0 | 0.0 | 0.00 | 0.00 | 0.00 | 80 | |
| 20260509111152 | 11 | 162 | 0.0 | 0.0 | 0.00 | 0.00 | 0.00 | 79 | |
| 20260509110649 | 11 | 160 | 0.0 | 0.0 | 0.00 | 0.00 | 0.00 | 78 | |
| 20260509110146 | 11 | 160 | 0.0 | 0.0 | 0.00 | 0.00 | 0.00 | 79 | |
| 20260509105644 | 11 | 158 | 0.0 | 0.0 | 0.00 | 0.00 | 0.00 | 82 | |
| 20260509105141 | 11 | 160 | 0.0 | 0.0 | 0.00 | 0.00 | 0.00 | 81 | |
| 20260509104638 | 11 | 160 | 0.0 | 0.0 | 0.00 | 0.00 | 0.00 | 81 | |
| 20260509104135 | 11 | 161 | 0.0 | 0.0 | 0.00 | 0.00 | 0.00 | 79 | |
| 20260509103633 | 11 | 147 | 0.0 | 1.6 | 0.00 | 0.00 | 0.00 | 80 | |
| 20260509103131 | 11 | 155 | 0.0 | 0.0 | 0.00 | 0.00 | 0.00 | 86 | |
| 20260509102628 | 12 | 155 | 0.0 | 0.0 | 0.00 | 0.00 | 0.00 | 85 | |
| 20260509102125 | 12 | 150 | 0.0 | 0.0 | 0.00 | 0.00 | 0.00 | 83 | |
| 20260509101621 | 12 | 142 | 0.0 | 1.6 | 0.00 | 0.00 | 0.00 | 81 | |
| 20260509101118 | 11 | 144 | 0.0 | 1.6 | 0.00 | 0.00 | 0.00 | 81 | |
| 20260509100615 | 11 | 120 | 1.6 | 3.2 | 0.00 | 0.00 | 0.00 | 85 | |
| 20260509100112 | 11 | 147 | 1.6 | 1.6 | 0.00 | 0.00 | 0.00 | 81 | |
| 20260509095608 | 11 | 151 | 0.0 | 1.6 | 0.00 | 0.00 | 0.00 | 83 | |
| 20260509095106 | 11 | 183 | 0.0 | 1.6 | 0.00 | 0.00 | 0.00 | 83 | |
| 20260509094602 | 11 | 192 | 0.0 | 0.0 | 0.00 | 0.00 | 0.00 | 83 | |
| 20260509094100 | 11 | 191 | 0.0 | 0.0 | 0.00 | 0.00 | 0.00 | 86 | |
| 20260509093558 | 11 | 191 | 0.0 | 1.6 | 0.00 | 0.00 | 0.00 | 86 | |
| 20260509093055 | 11 | 191 | 0.0 | 1.6 | 0.00 | 0.00 | 0.00 | 86 | |
| 20260509092553 | 11 | 195 | 0.0 | 1.6 | 0.00 | 0.00 | 0.00 | 86 | |
| 20260509092051 | 11 | 187 | 1.6 | 1.6 | 0.00 | 0.00 | 0.00 | 82 | |
| 20260509091548 | 11 | 187 | 0.0 | 1.6 | 0.00 | 0.00 | 0.00 | 83 | |
| 20260509091045 | 11 | 187 | 0.0 | 1.6 | 0.00 | 0.00 | 0.00 | 84 | |
| 20260509090542 | 11 | 198 | 0.0 | 0.0 | 0.00 | 0.00 | 0.00 | 88 | |
| 20260509090040 | 11 | 198 | 0.0 | 0.0 | 0.00 | 0.00 | 0.00 | 88 | |
| 20260509085537 | 11 | 198 | 0.0 | 0.0 | 0.00 | 0.00 | 0.00 | 87 | |
| 20260509085033 | 11 | 200 | 1.6 | 3.2 | 0.00 | 0.00 | 0.00 | 87 | |
| 20260509084530 | 11 | 198 | 1.6 | 1.6 | 0.00 | 0.00 | 0.00 | 88 | |
| 20260509084027 | 11 | 185 | 1.6 | 1.6 | 0.00 | 0.00 | 0.00 | 85 | |
| 20260509083525 | 11 | 185 | 1.6 | 1.6 | 0.00 | 0.00 | 0.00 | 86 | |
| 20260509083021 | 11 | 185 | 1.6 | 1.6 | 0.00 | 0.00 | 0.00 | 87 | |
| 20260509082519 | 11 | 185 | 0.0 | 0.0 | 0.00 | 0.00 | 0.00 | 87 | |
| 20260509082015 | 11 | 185 | 0.0 | 0.0 | 0.00 | 0.00 | 0.00 | 85 | |
| 20260509081513 | 11 | 187 | 0.0 | 0.0 | 0.00 | 0.00 | 0.00 | 87 | |
| 20260509081009 | 11 | 187 | 0.0 | 1.6 | 0.00 | 0.00 | 0.00 | 87 | |
| 20260509080507 | 11 | 192 | 1.6 | 1.6 | 0.00 | 0.00 | 0.00 | 87 | |
| 20260509080005 | 10 | 186 | 0.0 | 1.6 | 0.00 | 0.00 | 0.00 | 86 | |
| 20260509075502 | 10 | 193 | 1.6 | 1.6 | 0.00 | 0.00 | 0.00 | 88 | |
| 20260509074959 | 10 | 188 | 1.6 | 1.6 | 0.00 | 0.00 | 0.00 | 90 | |
| 20260509074457 | 10 | 148 | 0.0 | 0.0 | 0.00 | 0.00 | 0.00 | 90 | |
| 20260509073953 | 10 | 148 | 0.0 | 0.0 | 0.00 | 0.00 | 0.00 | 90 | |
| 20260509073450 | 10 | 148 | 0.0 | 1.6 | 0.00 | 0.00 | 0.00 | 90 | |
| 20260509072946 | 10 | 181 | 0.0 | 3.2 | 0.00 | 0.00 | 0.00 | 91 | |
| 20260509072443 | 10 | 196 | 0.0 | 0.0 | 0.00 | 0.00 | 0.00 | 91 | |
| 20260509071940 | 10 | 198 | 0.0 | 0.0 | 0.00 | 0.00 | 0.00 | 90 | |
| 20260509071436 | 10 | 200 | 0.0 | 0.0 | 0.00 | 0.00 | 0.00 | 91 | |
| 20260509070935 | 10 | 200 | 0.0 | 0.0 | 0.00 | 0.00 | 0.00 | 90 | |
| 20260509070431 | 10 | 201 | 1.6 | 3.2 | 0.00 | 0.00 | 0.00 | 90 | |
| 20260509065927 | 10 | 201 | 0.0 | 1.6 | 0.00 | 0.00 | 0.00 | 91 | |
| 20260509065423 | 10 | 208 | 1.6 | 3.2 | 0.00 | 0.00 | 0.00 | 92 | |
| 20260509064919 | 10 | 218 | 1.6 | 3.2 | 0.00 | 0.00 | 0.00 | 93 | |
| 20260509064417 | 10 | 177 | 0.0 | 1.6 | 0.00 | 0.00 | 0.00 | 93 | |
| 20260509063914 | 10 | 174 | 1.6 | 3.2 | 0.00 | 0.00 | 0.00 | 93 | |
| 20260509063409 | 10 | 227 | 3.2 | 3.2 | 0.00 | 0.00 | 0.00 | 93 | |
| 20260509062907 | 10 | 244 | 3.2 | 3.2 | 0.00 | 0.00 | 0.00 | 90 | |
| 20260509062404 | 10 | 225 | 1.6 | 3.2 | 0.00 | 0.00 | 0.00 | 84 | |
| 20260509061901 | 10 | 217 | 3.2 | 3.2 | 0.00 | 0.00 | 0.00 | 79 | |
| 20260509061359 | 10 | 174 | 0.0 | 0.0 | 0.00 | 0.00 | 0.00 | 77 | |
| 20260509060855 | 10 | 157 | 0.0 | 0.0 | 0.00 | 0.00 | 0.00 | 76 | |
| 20260509060353 | 10 | 165 | 0.0 | 0.0 | 0.00 | 0.00 | 0.00 | 77 | |
| 20260509055854 | 10 | 157 | 0.0 | 0.0 | 0.00 | 0.00 | 0.00 | 81 | |
| 20260509055349 | 10 | 156 | 0.0 | 1.6 | 0.00 | 0.00 | 0.00 | 84 | |
| 20260509054847 | 10 | 171 | 0.0 | 1.6 | 0.00 | 0.00 | 0.00 | 84 | |
| 20260509054343 | 9 | 154 | 0.0 | 0.0 | 0.00 | 0.00 | 0.00 | 85 | |
| 20260509053842 | 8 | 153 | 0.0 | 0.0 | 0.00 | 0.00 | 0.00 | 86 | |
| 20260509053338 | 8 | 165 | 0.0 | 0.0 | 0.00 | 0.00 | 0.00 | 87 | |
| 20260509052837 | 8 | 153 | 0.0 | 0.0 | 0.00 | 0.00 | 0.00 | 89 | |
| 20260509052334 | 8 | 160 | 0.0 | 0.0 | 0.00 | 0.00 | 0.00 | 89 | |
| 20260509051832 | 9 | 161 | 0.0 | 0.0 | 0.00 | 0.00 | 0.00 | 90 | |
| 20260509051330 | 9 | 174 | 0.0 | 0.0 | 0.00 | 0.00 | 0.00 | 89 | |
| 20260509050826 | 9 | 176 | 0.0 | 1.6 | 0.00 | 0.00 | 0.00 | 90 | |
| 20260509050323 | 9 | 178 | 0.0 | 1.6 | 0.00 | 0.00 | 0.00 | 92 | |
| 20260509045820 | 8 | 182 | 0.0 | 0.0 | 0.00 | 0.00 | 0.00 | 92 | |
| 20260509045316 | 8 | 155 | 0.0 | 0.0 | 0.00 | 0.00 | 0.00 | 92 | |
| 20260509044814 | 8 | 157 | 0.0 | 1.6 | 0.00 | 0.00 | 0.00 | 92 | |
| 20260509044311 | 8 | 137 | 0.0 | 1.6 | 0.00 | 0.00 | 0.00 | 94 | |
| 20260509043808 | 8 | 148 | 0.0 | 0.0 | 0.00 | 0.00 | 0.00 | 94 | |
| 20260509043303 | 8 | 153 | 0.0 | 0.0 | 0.00 | 0.00 | 0.00 | 95 | |
| 20260509042800 | 7 | 149 | 0.0 | 0.0 | 0.00 | 0.00 | 0.00 | 96 | |
| 20260509042256 | 7 | 160 | 0.0 | 0.0 | 0.00 | 0.00 | 0.00 | 97 | |
| 20260509041753 | 8 | 160 | 0.0 | 0.0 | 0.00 | 0.00 | 0.00 | 97 | |
| 20260509041250 | 8 | 161 | 0.0 | 0.0 | 0.00 | 0.00 | 0.00 | 97 | |
| 20260509040749 | 8 | 161 | 0.0 | 0.0 | 0.00 | 0.00 | 0.00 | 97 | |
| 20260509040245 | 8 | 161 | 0.0 | 0.0 | 0.00 | 0.00 | 0.00 | 97 | |
| 20260509035742 | 8 | 156 | 0.0 | 0.0 | 0.00 | 0.00 | 0.00 | 97 | |
| 20260509035239 | 8 | 156 | 0.0 | 0.0 | 0.00 | 0.00 | 0.00 | 96 | |
| 20260509034736 | 8 | 156 | 0.0 | 0.0 | 0.00 | 0.00 | 0.00 | 96 | |
| 20260509034233 | 8 | 155 | 0.0 | 0.0 | 0.00 | 0.00 | 0.00 | 96 | |
| 20260509033730 | 8 | 159 | 0.0 | 0.0 | 0.00 | 0.00 | 0.00 | 94 | |
| 20260509033227 | 8 | 159 | 0.0 | 0.0 | 0.00 | 0.00 | 0.00 | 94 | |
| 20260509032724 | 8 | 159 | 0.0 | 0.0 | 0.00 | 0.00 | 0.00 | 93 | |
| 20260509032221 | 8 | 159 | 0.0 | 0.0 | 0.00 | 0.00 | 0.00 | 93 | |
| 20260509031719 | 8 | 167 | 0.0 | 0.0 | 0.00 | 0.00 | 0.00 | 92 | |
| 20260509031216 | 8 | 167 | 0.0 | 0.0 | 0.00 | 0.00 | 0.00 | 91 | |
| 20260509030714 | 8 | 168 | 0.0 | 0.0 | 0.00 | 0.00 | 0.00 | 90 | |
| 20260509030211 | 8 | 169 | 0.0 | 0.0 | 0.00 | 0.00 | 0.00 | 89 | |
| 20260509025707 | 9 | 166 | 0.0 | 0.0 | 0.00 | 0.00 | 0.00 | 87 | |
| 20260509025203 | 9 | 162 | 0.0 | 0.0 | 0.00 | 0.00 | 0.00 | 86 | |
| 20260509024659 | 10 | 156 | 0.0 | 0.0 | 0.00 | 0.00 | 0.00 | 85 | |
| 20260509024155 | 10 | 144 | 0.0 | 0.0 | 0.00 | 0.00 | 0.00 | 85 | |
| 20260509023653 | 10 | 144 | 0.0 | 1.6 | 0.00 | 0.00 | 0.00 | 85 | |
| 20260509023150 | 10 | 155 | 0.0 | 0.0 | 0.00 | 0.00 | 0.00 | 84 | |
| 20260509022646 | 9 | 156 | 0.0 | 0.0 | 0.00 | 0.00 | 0.00 | 86 | |
| 20260509022144 | 10 | 167 | 0.0 | 0.0 | 0.00 | 0.00 | 0.00 | 91 | |
| 20260509021640 | 10 | 169 | 0.0 | 0.0 | 0.00 | 0.00 | 0.00 | 91 | |
| 20260509021137 | 10 | 169 | 0.0 | 0.0 | 0.00 | 0.00 | 0.00 | 90 | |
| 20260509020636 | 10 | 169 | 0.0 | 0.0 | 0.00 | 0.00 | 0.00 | 90 | |
| 20260509020132 | 10 | 169 | 0.0 | 0.0 | 0.00 | 0.00 | 0.00 | 85 | |
| 20260509015631 | 10 | 169 | 0.0 | 0.0 | 0.00 | 0.00 | 0.00 | 83 | |
| 20260509015128 | 10 | 160 | 0.0 | 0.0 | 0.00 | 0.00 | 0.00 | 86 | |
| 20260509014625 | 11 | 161 | 0.0 | 0.0 | 0.00 | 0.00 | 0.00 | 87 | |
| 20260509014121 | 11 | 172 | 0.0 | 0.0 | 0.00 | 0.00 | 0.00 | 84 | |
| 20260509013619 | 11 | 172 | 0.0 | 0.0 | 0.00 | 0.00 | 0.00 | 84 | |
| 20260509013114 | 11 | 172 | 0.0 | 0.0 | 0.00 | 0.00 | 0.00 | 83 | |
| 20260509012611 | 12 | 172 | 0.0 | 0.0 | 0.00 | 0.00 | 0.00 | 82 | |
| 20260509012107 | 12 | 173 | 0.0 | 0.0 | 0.00 | 0.00 | 0.00 | 79 | |
| 20260509011606 | 12 | 174 | 0.0 | 0.0 | 0.00 | 0.00 | 0.00 | 77 | |
| 20260509011102 | 12 | 164 | 0.0 | 0.0 | 0.00 | 0.00 | 0.00 | 68 | |
| 20260509010600 | 13 | 164 | 0.0 | 0.0 | 0.00 | 0.00 | 0.00 | 67 | |
| 20260509010057 | 14 | 160 | 0.0 | 0.0 | 0.00 | 0.00 | 0.00 | 68 | |
| 20260509005554 | 15 | 164 | 0.0 | 0.0 | 0.00 | 0.00 | 0.00 | 60 | |
| 20260509005050 | 15 | 168 | 1.6 | 3.2 | 0.00 | 0.00 | 0.00 | 56 | |
| 20260509004547 | 16 | 180 | 0.0 | 4.8 | 0.00 | 0.00 | 0.00 | 53 | |
| 20260509004043 | 16 | 192 | 3.2 | 3.2 | 0.00 | 0.00 | 0.00 | 53 | |
| 20260509003542 | 16 | 221 | 1.6 | 3.2 | 0.00 | 0.00 | 0.00 | 52 | |
| 20260509003039 | 16 | 194 | 1.6 | 1.6 | 0.00 | 0.00 | 0.00 | 55 | |
| 20260509002536 | 16 | 196 | 1.6 | 3.2 | 0.00 | 0.00 | 0.00 | 53 | |
| 20260509002034 | 16 | 190 | 1.6 | 3.2 | 0.00 | 0.00 | 0.00 | 53 | |
| 20260509001531 | 16 | 174 | 0.0 | 3.2 | 0.00 | 0.00 | 0.00 | 50 | |
| 20260509001026 | 17 | 152 | 0.0 | 3.2 | 0.00 | 0.00 | 0.00 | 49 | |
| 20260509000525 | 17 | 177 | 0.0 | 1.6 | 0.00 | 0.00 | 0.00 | 51 |